createdAt,value
2022-09-28T00:01:17.495Z,85.62
2022-09-28T00:03:46.595Z,86.02
2022-09-28T00:06:16.989Z,86.32
2022-09-28T00:08:44.762Z,86.72
2022-09-28T00:11:15.510Z,87.23
2022-09-28T00:13:44.656Z,86.82
2022-09-28T00:16:15.728Z,86.87
2022-09-28T00:18:43.855Z,86.37
2022-09-28T00:21:19.923Z,86.51
2022-09-28T00:24:09.721Z,87.00
2022-09-28T00:26:38.354Z,87.01
2022-09-28T00:29:06.678Z,87.64
2022-09-28T00:31:35.521Z,87.05
2022-09-28T00:34:04.944Z,87.68
2022-09-28T00:36:33.391Z,87.43
2022-09-28T00:39:06.886Z,87.03
2022-09-28T00:41:35.964Z,87.63
2022-09-28T00:44:28.106Z,87.10
2022-09-28T00:47:22.417Z,86.62
2022-09-28T00:50:09.043Z,87.34
2022-09-28T00:52:42.960Z,87.90
2022-09-28T00:55:16.430Z,87.83
2022-09-28T00:57:48.960Z,87.48
2022-09-28T01:00:16.997Z,87.30
2022-09-28T01:02:46.082Z,87.69
2022-09-28T01:05:14.893Z,88.39
2022-09-28T01:07:44.376Z,89.48
2022-09-28T01:10:11.976Z,88.99
2022-09-28T01:12:39.410Z,89.04
2022-09-28T01:15:07.309Z,88.61
2022-09-28T01:17:49.963Z,89.31
2022-09-28T01:20:49.828Z,89.33
2022-09-28T01:23:38.715Z,89.17
2022-09-28T01:26:18.269Z,88.92
2022-09-28T01:28:48.266Z,89.06
2022-09-28T01:31:18.591Z,89.20
2022-09-28T01:34:03.820Z,89.40
2022-09-28T01:36:38.022Z,89.05
2022-09-28T01:39:16.839Z,89.09
2022-09-28T01:41:45.746Z,89.16
2022-09-28T01:44:17.850Z,89.11
2022-09-28T01:46:49.074Z,90.04
2022-09-28T01:49:41.036Z,89.50
2022-09-28T01:52:20.430Z,89.48
2022-09-28T01:55:14.202Z,89.69
2022-09-28T01:57:48.562Z,90.55
2022-09-28T02:00:19.661Z,90.56
2022-09-28T02:03:18.885Z,90.44
2022-09-28T02:05:55.021Z,89.81
2022-09-28T02:08:28.517Z,90.07
2022-09-28T02:11:22.558Z,89.60
2022-09-28T02:13:58.759Z,89.66
2022-09-28T02:16:40.632Z,89.03
2022-09-28T02:19:14.666Z,89.81
2022-09-28T02:21:44.751Z,89.82
2022-09-28T02:24:53.961Z,89.08
2022-09-28T02:27:42.839Z,88.82
2022-09-28T02:30:11.592Z,88.94
2022-09-28T02:32:42.702Z,88.40
2022-09-28T02:35:12.746Z,88.68
2022-09-28T02:37:41.008Z,89.25
2022-09-28T02:40:19.962Z,88.97
2022-09-28T02:42:57.230Z,88.84
2022-09-28T02:45:37.206Z,89.07
2022-09-28T02:48:43.479Z,89.27
2022-09-28T02:51:20.226Z,89.98
2022-09-28T02:54:03.468Z,90.26
2022-09-28T02:56:58.148Z,89.88
2022-09-28T02:59:47.839Z,90.06
2022-09-28T03:02:27.930Z,90.12
2022-09-28T03:05:11.011Z,89.87
2022-09-28T03:08:03.835Z,90.50
2022-09-28T03:10:44.061Z,90.14
2022-09-28T03:13:13.702Z,90.62
2022-09-28T03:15:46.458Z,90.92
2022-09-28T03:18:16.871Z,91.08
2022-09-28T03:20:44.920Z,90.54
2022-09-28T03:23:24.483Z,90.59
2022-09-28T03:25:52.747Z,90.14
2022-09-28T03:28:21.484Z,90.85
2022-09-28T03:30:50.103Z,90.58
2022-09-28T03:33:18.460Z,90.46
2022-09-28T03:35:50.673Z,90.38
2022-09-28T03:38:18.905Z,90.86
2022-09-28T03:40:54.666Z,90.35
2022-09-28T03:43:23.214Z,90.82
2022-09-28T03:45:58.295Z,90.53
2022-09-28T03:48:32.920Z,91.12
2022-09-28T03:51:03.282Z,91.14
2022-09-28T03:53:31.328Z,90.55
2022-09-28T03:56:11.937Z,90.28
2022-09-28T03:58:39.991Z,90.83
2022-09-28T04:01:16.580Z,90.92
2022-09-28T04:03:45.685Z,90.97
2022-09-28T04:06:13.681Z,90.81
2022-09-28T04:08:43.104Z,90.86
2022-09-28T04:11:11.268Z,90.69
2022-09-28T04:13:38.743Z,90.18
2022-09-28T04:16:06.848Z,90.49
2022-09-28T04:18:35.261Z,90.79
2022-09-28T04:21:07.035Z,90.99
2022-09-28T04:23:36.875Z,90.45
2022-09-28T04:26:06.393Z,90.13
2022-09-28T04:28:52.724Z,90.94
2022-09-28T04:31:23.178Z,90.96
2022-09-28T04:33:50.714Z,91.39
2022-09-28T04:36:19.807Z,90.77
2022-09-28T04:38:53.219Z,91.32
2022-09-28T04:41:22.562Z,91.20
2022-09-28T04:43:50.678Z,91.64
2022-09-28T04:46:18.926Z,91.04
2022-09-28T04:48:47.361Z,91.64
2022-09-28T04:51:14.868Z,91.62
2022-09-28T04:53:42.666Z,91.70
2022-09-28T04:56:15.498Z,91.48
2022-09-28T04:58:43.380Z,91.35
2022-09-28T05:01:23.733Z,91.35
2022-09-28T05:03:51.392Z,92.26
2022-09-28T05:06:19.126Z,92.04
2022-09-28T05:08:47.315Z,92.75
2022-09-28T05:11:15.299Z,92.48
2022-09-28T05:13:45.463Z,92.70
2022-09-28T05:16:14.887Z,91.90
2022-09-28T05:18:42.892Z,91.90
2022-09-28T05:21:13.069Z,91.60
2022-09-28T05:23:45.659Z,91.79
2022-09-28T05:26:13.882Z,91.64
2022-09-28T05:28:41.329Z,91.70
2022-09-28T05:31:08.958Z,91.44
2022-09-28T05:33:37.253Z,92.41
2022-09-28T05:36:05.239Z,91.91
2022-09-28T05:38:33.003Z,91.87
2022-09-28T05:41:05.747Z,91.85
2022-09-28T05:43:34.519Z,91.19
2022-09-28T05:46:02.090Z,91.92
2022-09-28T05:48:30.119Z,91.76
2022-09-28T05:50:58.848Z,91.58
2022-09-28T05:53:26.377Z,92.32
2022-09-28T05:55:57.902Z,91.82
2022-09-28T05:58:25.488Z,91.72
2022-09-28T06:00:56.510Z,92.46
2022-09-28T06:03:25.034Z,92.19
2022-09-28T06:05:52.763Z,92.10
2022-09-28T06:08:20.535Z,91.63
2022-09-28T06:10:48.189Z,91.75
2022-09-28T06:13:15.752Z,91.75
2022-09-28T06:15:44.220Z,91.42
2022-09-28T06:18:16.699Z,91.51
2022-09-28T06:20:44.670Z,91.11
2022-09-28T06:23:13.477Z,91.04
2022-09-28T06:25:41.256Z,90.80
2022-09-28T06:28:14.138Z,90.82
2022-09-28T06:30:43.112Z,90.24
2022-09-28T06:33:12.791Z,89.02
2022-09-28T06:35:40.828Z,89.60
2022-09-28T06:38:08.378Z,89.06
2022-09-28T06:40:36.415Z,87.77
2022-09-28T06:43:10.995Z,86.35
2022-09-28T06:45:39.172Z,86.59
2022-09-28T06:48:07.179Z,85.81
2022-09-28T06:50:39.660Z,85.43
2022-09-28T06:53:09.604Z,86.00
2022-09-28T06:55:42.229Z,85.96
2022-09-28T06:58:11.839Z,82.94
2022-09-28T07:00:40.889Z,82.61
2022-09-28T07:03:14.121Z,81.55
2022-09-28T07:05:45.636Z,79.51
2022-09-28T07:08:14.557Z,78.22
2022-09-28T07:10:47.169Z,76.34
2022-09-28T07:13:36.523Z,75.66
2022-09-28T07:16:04.241Z,73.30
2022-09-28T07:18:32.139Z,69.84
2022-09-28T07:20:59.854Z,68.28
2022-09-28T07:23:29.908Z,67.29
2022-09-28T07:25:58.303Z,65.97
2022-09-28T07:28:26.308Z,66.71
2022-09-28T07:30:57.578Z,67.82
2022-09-28T07:33:27.860Z,67.29
2022-09-28T07:35:56.045Z,65.19
2022-09-28T07:38:23.882Z,64.29
2022-09-28T07:41:10.384Z,63.21
2022-09-28T07:43:41.955Z,62.91
2022-09-28T07:46:12.260Z,61.92
2022-09-28T07:48:43.619Z,61.41
2022-09-28T07:51:11.293Z,61.12
2022-09-28T07:53:38.745Z,60.78
2022-09-28T07:56:09.935Z,60.54
2022-09-28T07:58:39.473Z,59.66
2022-09-28T08:01:10.649Z,58.71
2022-09-28T08:03:39.543Z,58.71
2022-09-28T08:06:11.245Z,58.02
2022-09-28T08:08:44.923Z,58.25
2022-09-28T08:11:17.921Z,58.26
2022-09-28T08:13:46.561Z,58.85
2022-09-28T08:16:14.256Z,58.11
2022-09-28T08:18:41.727Z,58.70
2022-09-28T08:21:29.323Z,59.51
2022-09-28T08:23:57.028Z,61.12
2022-09-28T08:26:24.887Z,63.00
2022-09-28T08:28:52.454Z,64.57
2022-09-28T08:31:20.108Z,63.91
2022-09-28T08:33:53.735Z,64.82
2022-09-28T08:36:21.267Z,64.26
2022-09-28T08:38:49.344Z,64.59
2022-09-28T08:41:25.680Z,64.85
2022-09-28T08:44:09.497Z,65.05
2022-09-28T08:46:47.946Z,64.42
2022-09-28T08:49:30.292Z,65.38
2022-09-28T08:51:57.724Z,65.26
2022-09-28T08:54:56.313Z,65.67
2022-09-28T08:57:38.807Z,65.48
2022-09-28T09:00:10.975Z,63.96
2022-09-28T09:02:39.827Z,64.19
2022-09-28T09:05:14.843Z,63.83
2022-09-28T09:08:19.727Z,63.46
2022-09-28T09:10:50.135Z,63.29
2022-09-28T09:13:46.510Z,62.05
2022-09-28T09:16:35.378Z,62.08
2022-09-28T09:19:09.116Z,62.47
2022-09-28T09:21:45.072Z,62.66
2022-09-28T09:24:37.245Z,63.03
2022-09-28T09:27:05.260Z,62.74
2022-09-28T09:30:06.276Z,63.53
2022-09-28T09:32:41.257Z,63.13
2022-09-28T09:35:34.737Z,61.16
2022-09-28T09:38:20.581Z,60.43
2022-09-28T09:41:20.097Z,59.92
2022-09-28T09:44:17.695Z,59.67
2022-09-28T09:47:02.144Z,59.54
2022-09-28T09:49:40.161Z,59.32
2022-09-28T09:52:14.809Z,60.20
2022-09-28T09:54:45.567Z,59.35
2022-09-28T09:57:20.277Z,59.56
2022-09-28T09:59:50.103Z,59.58
2022-09-28T10:02:30.200Z,58.81
2022-09-28T10:05:05.371Z,58.80
2022-09-28T10:07:55.063Z,59.06
2022-09-28T10:10:29.984Z,59.65
2022-09-28T10:12:57.739Z,59.97
2022-09-28T10:15:30.709Z,60.24
2022-09-28T10:18:03.077Z,60.46
2022-09-28T10:20:37.222Z,60.81
2022-09-28T10:23:09.355Z,60.26
2022-09-28T10:25:38.366Z,60.38
2022-09-28T10:28:07.018Z,59.98
2022-09-28T10:30:44.582Z,59.94
2022-09-28T10:33:35.185Z,60.31
2022-09-28T10:36:07.059Z,60.22
2022-09-28T10:38:35.487Z,60.22
2022-09-28T10:41:14.218Z,59.84
2022-09-28T10:44:06.347Z,59.80
2022-09-28T10:46:35.988Z,59.53
2022-09-28T10:49:06.778Z,59.33
2022-09-28T10:51:43.082Z,59.58
2022-09-28T10:54:21.604Z,60.04
2022-09-28T10:56:50.617Z,60.48
2022-09-28T10:59:26.904Z,60.71
2022-09-28T11:02:00.830Z,60.31
2022-09-28T11:04:30.619Z,59.37
2022-09-28T11:07:01.036Z,58.08
2022-09-28T11:09:31.138Z,58.04
2022-09-28T11:12:00.233Z,57.31
2022-09-28T11:14:42.107Z,57.16
2022-09-28T11:17:40.019Z,57.17
2022-09-28T11:20:31.240Z,56.41
2022-09-28T11:23:19.135Z,56.11
2022-09-28T11:26:07.241Z,56.54
2022-09-28T11:28:39.202Z,56.72
2022-09-28T11:31:08.199Z,57.50
2022-09-28T11:33:40.395Z,58.20
2022-09-28T11:36:13.666Z,58.15
2022-09-28T11:38:53.952Z,58.26
2022-09-28T11:41:35.284Z,58.51
2022-09-28T11:44:30.846Z,58.46
2022-09-28T11:47:00.666Z,58.71
2022-09-28T11:49:34.398Z,59.15
2022-09-28T11:52:20.621Z,58.54
2022-09-28T11:54:57.241Z,60.14
2022-09-28T11:57:30.245Z,62.62
2022-09-28T12:00:02.035Z,60.15
2022-09-28T12:02:39.880Z,62.26
2022-09-28T12:05:28.403Z,64.65
2022-09-28T12:08:29.436Z,66.07
2022-09-28T12:11:07.800Z,67.31
2022-09-28T12:13:41.215Z,68.30
2022-09-28T12:16:45.252Z,68.91
2022-09-28T12:19:08.133Z,69.47
2022-09-28T12:21:51.263Z,69.55
2022-09-28T12:24:30.531Z,69.50
2022-09-28T12:27:10.965Z,69.50
2022-09-28T12:29:47.532Z,69.82
2022-09-28T12:32:49.910Z,70.30
2022-09-28T12:36:13.313Z,70.52
2022-09-28T12:39:40.803Z,70.21
2022-09-28T12:42:14.819Z,69.96
2022-09-28T12:45:09.890Z,69.17
2022-09-28T12:48:04.791Z,68.85
2022-09-28T12:50:45.710Z,68.49
2022-09-28T12:53:44.202Z,67.39
2022-09-28T12:56:19.354Z,65.69
2022-09-28T12:59:01.071Z,65.56
2022-09-28T13:01:40.775Z,65.81
2022-09-28T13:04:27.269Z,65.61
2022-09-28T13:07:15.977Z,65.66
2022-09-28T13:09:49.341Z,65.89
2022-09-28T13:12:38.026Z,66.11
2022-09-28T13:15:39.726Z,66.05
2022-09-28T13:18:41.029Z,66.41
2022-09-28T13:21:42.989Z,66.82
2022-09-28T13:24:31.571Z,66.93
2022-09-28T13:27:10.488Z,67.00
2022-09-28T13:32:12.987Z,67.24
2022-09-28T13:34:40.852Z,67.00
2022-09-28T13:37:14.561Z,66.85
2022-09-28T13:39:44.914Z,67.40
2022-09-28T13:42:30.493Z,68.04
2022-09-28T13:45:13.524Z,68.57
2022-09-28T13:47:52.450Z,68.80
2022-09-28T13:50:44.499Z,69.06
2022-09-28T13:53:51.149Z,69.01
2022-09-28T13:56:43.626Z,69.76
2022-09-28T13:59:29.794Z,69.30
2022-09-28T14:02:28.989Z,69.74
2022-09-28T14:05:02.736Z,69.45
2022-09-28T14:07:36.146Z,69.21
2022-09-28T14:10:21.839Z,68.66
2022-09-28T14:12:53.388Z,68.93
2022-09-28T14:15:29.631Z,68.88
2022-09-28T14:18:24.314Z,69.02
2022-09-28T14:21:07.101Z,68.37
2022-09-28T14:24:00.567Z,68.28
2022-09-28T14:26:42.871Z,67.80
2022-09-28T14:29:30.163Z,67.83
2022-09-28T14:32:04.205Z,68.14
2022-09-28T14:34:34.396Z,68.30
2022-09-28T14:37:23.359Z,68.39
2022-09-28T14:40:10.061Z,69.00
2022-09-28T14:42:37.594Z,69.41
2022-09-28T14:45:07.757Z,69.35
2022-09-28T14:47:42.437Z,69.27
2022-09-28T14:50:22.105Z,69.33
2022-09-28T14:52:53.622Z,68.99
2022-09-28T14:55:29.127Z,68.45
2022-09-28T14:57:58.969Z,68.72
2022-09-28T15:00:30.407Z,68.90
2022-09-28T15:03:07.875Z,69.31
2022-09-28T15:05:44.192Z,69.74
2022-09-28T15:08:12.237Z,70.01
2022-09-28T15:10:46.183Z,69.93
2022-09-28T15:13:27.648Z,70.12
2022-09-28T15:16:07.407Z,70.18
2022-09-28T15:18:34.853Z,70.52
2022-09-28T15:21:02.723Z,70.15
2022-09-28T15:23:30.155Z,70.38
2022-09-28T15:25:57.826Z,70.69
2022-09-28T15:28:25.819Z,70.88
2022-09-28T15:31:03.001Z,70.77
2022-09-28T15:33:50.270Z,71.38
2022-09-28T15:36:28.816Z,71.77
2022-09-28T15:39:02.072Z,71.96
2022-09-28T15:41:30.108Z,72.24
2022-09-28T15:44:19.004Z,72.90
2022-09-28T15:46:52.171Z,72.75
2022-09-28T15:49:39.056Z,72.53
2022-09-28T15:52:22.179Z,72.87
2022-09-28T15:54:50.157Z,73.75
2022-09-28T15:57:39.196Z,73.12
2022-09-28T16:00:23.840Z,73.57
2022-09-28T16:03:17.685Z,73.90
2022-09-28T16:06:05.624Z,73.93
2022-09-28T16:08:33.039Z,74.17
2022-09-28T16:11:16.259Z,74.06
2022-09-28T16:14:02.801Z,74.19
2022-09-28T16:16:35.416Z,75.04
2022-09-28T16:19:03.696Z,74.92
2022-09-28T16:21:47.005Z,75.97
2022-09-28T16:24:27.055Z,76.05
2022-09-28T16:27:01.398Z,75.98
2022-09-28T16:29:40.124Z,75.60
2022-09-28T16:32:25.773Z,76.08
2022-09-28T16:35:11.242Z,76.60
2022-09-28T16:37:42.688Z,77.00
2022-09-28T16:40:11.326Z,77.50
2022-09-28T16:42:44.387Z,78.09
2022-09-28T16:45:20.502Z,78.36
2022-09-28T16:47:52.989Z,78.55
2022-09-28T16:50:22.077Z,78.34
2022-09-28T16:53:37.602Z,79.28
2022-09-28T16:56:05.598Z,78.87
2022-09-28T16:58:33.774Z,79.18
2022-09-28T17:01:01.564Z,79.48
2022-09-28T17:03:29.638Z,79.42
2022-09-28T17:05:57.511Z,79.67
2022-09-28T17:08:25.646Z,78.96
2022-09-28T17:11:18.975Z,79.58
2022-09-28T17:13:47.231Z,80.08
2022-09-28T17:16:32.258Z,80.17
2022-09-28T17:19:25.631Z,79.79
2022-09-28T17:21:53.344Z,80.56
2022-09-28T17:24:21.245Z,80.66
2022-09-28T17:26:50.992Z,80.78
2022-09-28T17:29:19.207Z,81.84
2022-09-28T17:31:47.845Z,81.67
2022-09-28T17:34:16.316Z,82.49
2022-09-28T17:36:45.219Z,81.36
2022-09-28T17:39:15.688Z,82.32
2022-09-28T17:41:43.633Z,82.75
2022-09-28T17:44:11.564Z,82.30
2022-09-28T17:46:45.980Z,82.53
2022-09-28T17:49:14.564Z,82.53
2022-09-28T17:51:42.270Z,82.58
2022-09-28T17:54:10.396Z,82.76
2022-09-28T17:56:38.502Z,82.37
2022-09-28T17:59:10.403Z,82.75
2022-09-28T18:01:39.571Z,82.64
2022-09-28T18:04:09.077Z,83.09
2022-09-28T18:06:37.475Z,83.31
2022-09-28T18:09:05.580Z,83.75
2022-09-28T18:11:33.843Z,83.75
2022-09-28T18:14:01.639Z,83.90
2022-09-28T18:16:29.408Z,84.80
2022-09-28T18:18:58.722Z,84.36
2022-09-28T18:21:26.617Z,84.52
2022-09-28T18:23:54.513Z,84.04
2022-09-28T18:26:22.289Z,84.33
2022-09-28T18:28:54.735Z,84.09
2022-09-28T18:31:22.955Z,83.61
2022-09-28T18:33:50.777Z,84.07
2022-09-28T18:36:18.243Z,83.14
2022-09-28T18:38:46.223Z,83.59
2022-09-28T18:41:16.102Z,83.95
2022-09-28T18:43:55.599Z,83.78
2022-09-28T18:46:27.140Z,83.32
2022-09-28T18:48:55.357Z,83.47
2022-09-28T18:51:23.437Z,83.47
2022-09-28T18:53:51.018Z,83.01
2022-09-28T18:56:19.581Z,83.38
2022-09-28T18:58:51.235Z,83.52
2022-09-28T19:01:36.259Z,83.49
2022-09-28T19:04:06.560Z,83.73
2022-09-28T19:06:34.690Z,83.67
2022-09-28T19:09:02.483Z,83.68
2022-09-28T19:11:30.229Z,83.76
2022-09-28T19:13:58.071Z,83.45
2022-09-28T19:16:28.789Z,83.08
2022-09-28T19:18:57.874Z,83.16
2022-09-28T19:21:26.800Z,83.24
2022-09-28T19:23:55.657Z,83.57
2022-09-28T19:26:27.015Z,83.80
2022-09-28T19:28:58.747Z,83.73
2022-09-28T19:31:26.946Z,83.38
2022-09-28T19:33:54.719Z,82.93
2022-09-28T19:36:25.247Z,83.89
2022-09-28T19:38:53.537Z,83.41
2022-09-28T19:41:44.295Z,84.08
2022-09-28T19:44:24.561Z,84.22
2022-09-28T19:47:04.846Z,84.19
2022-09-28T19:49:36.860Z,83.71
2022-09-28T19:52:13.478Z,84.18
2022-09-28T19:54:55.790Z,83.82
2022-09-28T19:57:26.029Z,83.67
2022-09-28T19:59:57.858Z,83.77
2022-09-28T20:02:28.684Z,84.26
2022-09-28T20:04:56.355Z,84.22
2022-09-28T20:07:23.840Z,83.93
2022-09-28T20:09:51.869Z,83.31
2022-09-28T20:12:20.002Z,83.75
2022-09-28T20:14:47.563Z,82.76
2022-09-28T20:17:15.334Z,82.71
2022-09-28T20:19:43.191Z,82.28
2022-09-28T20:22:12.203Z,82.13
2022-09-28T20:24:39.549Z,81.61
2022-09-28T20:27:07.221Z,81.64
2022-09-28T20:29:35.367Z,81.05
2022-09-28T20:32:04.090Z,81.09
2022-09-28T20:34:35.053Z,80.75
2022-09-28T20:37:03.251Z,80.97
2022-09-28T20:39:30.781Z,80.70
2022-09-28T20:41:58.259Z,79.99
2022-09-28T20:44:25.716Z,80.29
2022-09-28T20:46:53.208Z,81.36
2022-09-28T20:49:20.975Z,81.04
2022-09-28T20:51:48.724Z,80.42
2022-09-28T20:54:16.500Z,79.13
2022-09-28T20:56:44.036Z,79.65
2022-09-28T20:59:12.494Z,79.38
2022-09-28T21:01:40.851Z,79.62
2022-09-28T21:04:10.203Z,79.72
2022-09-28T21:06:40.784Z,80.09
2022-09-28T21:09:10.017Z,79.82
2022-09-28T21:11:39.840Z,79.83
2022-09-28T21:14:10.311Z,79.87
2022-09-28T21:16:38.291Z,79.83
2022-09-28T21:19:05.845Z,79.95
2022-09-28T21:21:33.344Z,80.18
2022-09-28T21:24:01.048Z,79.77
2022-09-28T21:26:30.035Z,80.55
2022-09-28T21:28:58.833Z,80.80
2022-09-28T21:31:29.681Z,81.14
2022-09-28T21:33:58.465Z,81.04
2022-09-28T21:36:26.319Z,81.59
2022-09-28T21:38:55.155Z,81.53
2022-09-28T21:41:24.258Z,81.74
2022-09-28T21:43:52.160Z,82.27
2022-09-28T21:46:19.850Z,82.62
2022-09-28T21:48:52.458Z,83.02
2022-09-28T21:51:20.668Z,83.50
2022-09-28T21:53:54.181Z,83.38
2022-09-28T21:56:23.119Z,84.19
2022-09-28T21:58:51.178Z,84.50
2022-09-28T22:19:26.191Z,84.37
2022-09-28T22:21:53.874Z,84.95
2022-09-28T22:24:21.625Z,85.27
2022-09-28T22:27:02.062Z,85.29
2022-09-28T22:29:30.254Z,85.07
2022-09-28T22:32:02.267Z,85.51
2022-09-28T22:34:31.783Z,85.82
2022-09-28T22:37:00.351Z,86.21
2022-09-28T22:39:27.954Z,86.56
2022-09-28T22:41:55.591Z,86.47
2022-09-28T22:44:23.037Z,86.62
2022-09-28T22:46:50.853Z,86.96
2022-09-28T22:49:19.055Z,87.33
2022-09-28T22:51:46.936Z,87.04
2022-09-28T22:54:16.357Z,87.24
2022-09-28T22:56:44.246Z,86.42
2022-09-28T22:59:12.109Z,86.92
2022-09-28T23:01:39.746Z,86.07
2022-09-28T23:04:09.146Z,86.24
2022-09-28T23:06:36.596Z,86.27
2022-09-28T23:09:04.227Z,86.63
2022-09-28T23:11:32.060Z,86.57
2022-09-28T23:14:00.407Z,86.56
2022-09-28T23:16:28.129Z,86.50
2022-09-28T23:18:56.131Z,86.23
2022-09-28T23:21:25.974Z,85.94
2022-09-28T23:23:59.650Z,85.86
2022-09-28T23:26:29.968Z,85.68
2022-09-28T23:28:58.689Z,86.31
2022-09-28T23:31:29.209Z,85.80
2022-09-28T23:34:01.214Z,85.85
2022-09-28T23:36:29.733Z,85.57
2022-09-28T23:38:58.131Z,85.93
2022-09-28T23:41:26.038Z,86.14
2022-09-28T23:43:53.528Z,86.16
2022-09-28T23:46:21.485Z,86.07
2022-09-28T23:48:49.986Z,86.03
2022-09-28T23:51:17.936Z,85.95
2022-09-28T23:53:46.210Z,86.27
2022-09-28T23:56:14.626Z,86.36
2022-09-28T23:58:42.277Z,86.46
